sensor_id;sensor_type;location;lat;lon;timestamp;pressure;altitude;pressure_sealevel;temperature;humidity
2711;BME280;20721;47.402;8.550;2023-04-01T00:00:17;95163;;;8.80;59.50
2711;BME280;20721;47.402;8.550;2023-04-01T00:01:17;95156;;;8.85;59.36
2711;BME280;20721;47.402;8.550;2023-04-01T00:02:17;95160;;;8.98;59.16
2711;BME280;20721;47.402;8.550;2023-04-01T00:03:17;95164;;;9.08;58.94
2711;BME280;20721;47.402;8.550;2023-04-01T00:04:17;95130;;;9.14;58.39
2711;BME280;20721;47.402;8.550;2023-04-01T00:05:17;95158;;;9.12;58.09
2711;BME280;20721;47.402;8.550;2023-04-01T00:06:17;95170;;;9.23;58.07
2711;BME280;20721;47.402;8.550;2023-04-01T00:07:17;95166;;;9.26;58.12
2711;BME280;20721;47.402;8.550;2023-04-01T00:08:17;95163;;;9.23;58.08
2711;BME280;20721;47.402;8.550;2023-04-01T00:09:17;95161;;;9.24;58.04
2711;BME280;20721;47.402;8.550;2023-04-01T00:10:17;95154;;;9.27;58.03
2711;BME280;20721;47.402;8.550;2023-04-01T00:11:17;95162;;;9.25;58.12
2711;BME280;20721;47.402;8.550;2023-04-01T00:12:17;95171;;;9.29;58.09
2711;BME280;20721;47.402;8.550;2023-04-01T00:13:17;95170;;;9.32;58.04
2711;BME280;20721;47.402;8.550;2023-04-01T00:14:17;95166;;;9.38;57.88
2711;BME280;20721;47.402;8.550;2023-04-01T00:15:17;95173;;;9.39;57.98
2711;BME280;20721;47.402;8.550;2023-04-01T00:17:17;95166;;;9.42;57.66
2711;BME280;20721;47.402;8.550;2023-04-01T00:18:17;95168;;;9.47;57.62
2711;BME280;20721;47.402;8.550;2023-04-01T00:19:17;95160;;;9.41;57.49
2711;BME280;20721;47.402;8.550;2023-04-01T00:21:17;95160;;;9.36;57.50
2711;BME280;20721;47.402;8.550;2023-04-01T00:22:17;95160;;;9.32;57.63
2711;BME280;20721;47.402;8.550;2023-04-01T00:23:18;95166;;;9.36;57.68
2711;BME280;20721;47.402;8.550;2023-04-01T00:24:17;95161;;;9.38;57.63
2711;BME280;20721;47.402;8.550;2023-04-01T00:25:17;95162;;;9.37;57.50
2711;BME280;20721;47.402;8.550;2023-04-01T00:26:19;95169;;;9.41;57.46
2711;BME280;20721;47.402;8.550;2023-04-01T00:27:17;95164;;;9.46;57.35
2711;BME280;20721;47.402;8.550;2023-04-01T00:28:17;95178;;;9.51;57.24
2711;BME280;20721;47.402;8.550;2023-04-01T00:29:17;95172;;;9.48;57.03
2711;BME280;20721;47.402;8.550;2023-04-01T00:30:17;95168;;;9.49;57.12
2711;BME280;20721;47.402;8.550;2023-04-01T00:31:17;95167;;;9.53;57.21
2711;BME280;20721;47.402;8.550;2023-04-01T00:32:17;95167;;;9.62;57.10
2711;BME280;20721;47.402;8.550;2023-04-01T00:33:17;95168;;;9.65;56.88
2711;BME280;20721;47.402;8.550;2023-04-01T00:34:17;95165;;;9.67;56.85
2711;BME280;20721;47.402;8.550;2023-04-01T00:35:17;95160;;;9.61;56.85
2711;BME280;20721;47.402;8.550;2023-04-01T00:36:18;95166;;;9.58;57.04
2711;BME280;20721;47.402;8.550;2023-04-01T00:37:17;95164;;;9.60;57.02
2711;BME280;20721;47.402;8.550;2023-04-01T00:38:17;95160;;;9.51;57.20
2711;BME280;20721;47.402;8.550;2023-04-01T00:41:18;95165;;;9.49;57.02
2711;BME280;20721;47.402;8.550;2023-04-01T00:42:18;95160;;;9.51;56.98
2711;BME280;20721;47.402;8.550;2023-04-01T00:44:20;95161;;;9.52;57.00
2711;BME280;20721;47.402;8.550;2023-04-01T00:46:17;95164;;;9.54;56.82
2711;BME280;20721;47.402;8.550;2023-04-01T00:47:17;95167;;;9.57;56.79
2711;BME280;20721;47.402;8.550;2023-04-01T00:48:18;95171;;;9.64;56.58
2711;BME280;20721;47.402;8.550;2023-04-01T00:49:17;95159;;;9.56;56.57
2711;BME280;20721;47.402;8.550;2023-04-01T00:50:17;95165;;;9.53;56.66
2711;BME280;20721;47.402;8.550;2023-04-01T00:52:18;95166;;;9.50;56.72
2711;BME280;20721;47.402;8.550;2023-04-01T00:53:17;95169;;;9.51;56.72
2711;BME280;20721;47.402;8.550;2023-04-01T00:54:17;95166;;;9.48;56.68
2711;BME280;20721;47.402;8.550;2023-04-01T00:55:17;95163;;;9.47;56.80
2711;BME280;20721;47.402;8.550;2023-04-01T00:57:22;95170;;;9.46;56.90
2711;BME280;20721;47.402;8.550;2023-04-01T00:58:17;95164;;;9.43;56.91
2711;BME280;20721;47.402;8.550;2023-04-01T00:59:19;95161;;;9.42;56.92
2711;BME280;20721;47.402;8.550;2023-04-01T01:00:17;95162;;;9.44;57.03
2711;BME280;20721;47.402;8.550;2023-04-01T01:02:18;95175;;;9.45;56.95
2711;BME280;20721;47.402;8.550;2023-04-01T01:03:17;95171;;;9.41;56.90
2711;BME280;20721;47.402;8.550;2023-04-01T01:05:17;95172;;;9.38;57.18
2711;BME280;20721;47.402;8.550;2023-04-01T01:08:24;95153;;;9.29;57.55
2711;BME280;20721;47.402;8.550;2023-04-01T01:09:24;95159;;;9.23;57.41
2711;BME280;20721;47.402;8.550;2023-04-01T01:10:18;95155;;;9.12;57.64
2711;BME280;20721;47.402;8.550;2023-04-01T01:12:18;95143;;;9.10;57.80
2711;BME280;20721;47.402;8.550;2023-04-01T01:13:19;95137;;;9.09;57.87
2711;BME280;20721;47.402;8.550;2023-04-01T01:15:20;95150;;;9.05;57.83
2711;BME280;20721;47.402;8.550;2023-04-01T01:16:21;95139;;;9.13;57.79
2711;BME280;20721;47.402;8.550;2023-04-01T01:23:23;95135;;;9.07;57.96
2711;BME280;20721;47.402;8.550;2023-04-01T01:25:18;95133;;;8.99;58.16
2711;BME280;20721;47.402;8.550;2023-04-01T01:27:18;95136;;;8.95;58.32
2711;BME280;20721;47.402;8.550;2023-04-01T01:28:23;95131;;;8.97;58.39
2711;BME280;20721;47.402;8.550;2023-04-01T01:31:22;95133;;;9.10;58.05
2711;BME280;20721;47.402;8.550;2023-04-01T01:33:35;95132;;;9.02;58.18
2711;BME280;20721;47.402;8.550;2023-04-01T01:34:20;95135;;;8.94;58.20
2711;BME280;20721;47.402;8.550;2023-04-01T01:35:20;95133;;;8.96;58.29
2711;BME280;20721;47.402;8.550;2023-04-01T01:36:17;95134;;;9.00;58.20
2711;BME280;20721;47.402;8.550;2023-04-01T01:37:17;95144;;;9.08;58.09
2711;BME280;20721;47.402;8.550;2023-04-01T01:38:19;95142;;;9.09;58.06
2711;BME280;20721;47.402;8.550;2023-04-01T01:39:17;95133;;;9.10;57.97
2711;BME280;20721;47.402;8.550;2023-04-01T01:40:17;95138;;;9.15;57.88
2711;BME280;20721;47.402;8.550;2023-04-01T01:41:17;95141;;;9.21;57.89
2711;BME280;20721;47.402;8.550;2023-04-01T01:43:18;95139;;;9.25;57.63
2711;BME280;20721;47.402;8.550;2023-04-01T01:44:18;95141;;;9.27;57.50
2711;BME280;20721;47.402;8.550;2023-04-01T01:45:18;95143;;;9.26;57.40
2711;BME280;20721;47.402;8.550;2023-04-01T01:46:19;95141;;;9.24;57.38
2711;BME280;20721;47.402;8.550;2023-04-01T01:47:17;95137;;;9.30;57.31
2711;BME280;20721;47.402;8.550;2023-04-01T01:48:17;95137;;;9.29;57.34
2711;BME280;20721;47.402;8.550;2023-04-01T01:49:17;95144;;;9.26;57.46
2711;BME280;20721;47.402;8.550;2023-04-01T01:50:18;95135;;;9.22;57.39
2711;BME280;20721;47.402;8.550;2023-04-01T01:52:18;95129;;;9.19;57.47
2711;BME280;20721;47.402;8.550;2023-04-01T01:53:17;95136;;;9.20;57.47
2711;BME280;20721;47.402;8.550;2023-04-01T01:54:17;95161;;;9.09;57.19
2711;BME280;20721;47.402;8.550;2023-04-01T01:55:26;95138;;;8.94;57.50
2711;BME280;20721;47.402;8.550;2023-04-01T01:57:18;95144;;;8.91;57.53
2711;BME280;20721;47.402;8.550;2023-04-01T01:58:19;95151;;;8.88;57.44
2711;BME280;20721;47.402;8.550;2023-04-01T01:59:18;95129;;;8.81;57.44
2711;BME280;20721;47.402;8.550;2023-04-01T02:00:17;95124;;;8.83;57.40
2711;BME280;20721;47.402;8.550;2023-04-01T02:01:19;95141;;;8.80;57.54
2711;BME280;20721;47.402;8.550;2023-04-01T02:02:17;95138;;;8.83;57.64
2711;BME280;20721;47.402;8.550;2023-04-01T02:04:17;95129;;;8.82;57.54
2711;BME280;20721;47.402;8.550;2023-04-01T02:05:19;95128;;;8.83;57.66
2711;BME280;20721;47.402;8.550;2023-04-01T02:06:18;95130;;;8.82;57.79
2711;BME280;20721;47.402;8.550;2023-04-01T02:07:20;95127;;;8.87;57.47
2711;BME280;20721;47.402;8.550;2023-04-01T02:08:26;95131;;;8.90;57.42
2711;BME280;20721;47.402;8.550;2023-04-01T02:09:17;95128;;;8.93;57.25
2711;BME280;20721;47.402;8.550;2023-04-01T02:10:17;95133;;;9.01;57.07
2711;BME280;20721;47.402;8.550;2023-04-01T02:11:22;95139;;;9.02;57.00
2711;BME280;20721;47.402;8.550;2023-04-01T02:12:17;95138;;;9.07;56.91
2711;BME280;20721;47.402;8.550;2023-04-01T02:13:19;95141;;;9.16;56.68
2711;BME280;20721;47.402;8.550;2023-04-01T02:14:18;95139;;;9.17;56.49
2711;BME280;20721;47.402;8.550;2023-04-01T02:15:17;95140;;;9.14;56.41
2711;BME280;20721;47.402;8.550;2023-04-01T02:17:18;95128;;;9.09;56.40
2711;BME280;20721;47.402;8.550;2023-04-01T02:18:17;95135;;;9.07;56.45
2711;BME280;20721;47.402;8.550;2023-04-01T02:19:23;95134;;;9.03;56.15
2711;BME280;20721;47.402;8.550;2023-04-01T02:20:19;95138;;;9.05;56.27
2711;BME280;20721;47.402;8.550;2023-04-01T02:21:18;95132;;;9.01;56.20
2711;BME280;20721;47.402;8.550;2023-04-01T02:23:17;95131;;;8.96;56.06
2711;BME280;20721;47.402;8.550;2023-04-01T02:24:17;95141;;;8.97;56.03
2711;BME280;20721;47.402;8.550;2023-04-01T02:25:18;95139;;;9.03;56.09
2711;BME280;20721;47.402;8.550;2023-04-01T02:26:17;95132;;;9.05;56.19
2711;BME280;20721;47.402;8.550;2023-04-01T02:27:17;95139;;;9.12;56.15
2711;BME280;20721;47.402;8.550;2023-04-01T02:28:19;95140;;;9.18;55.88
2711;BME280;20721;47.402;8.550;2023-04-01T02:29:19;95138;;;9.25;55.77
2711;BME280;20721;47.402;8.550;2023-04-01T02:30:17;95138;;;9.23;55.69
2711;BME280;20721;47.402;8.550;2023-04-01T02:31:17;95136;;;9.20;55.79
2711;BME280;20721;47.402;8.550;2023-04-01T02:32:18;95140;;;9.13;55.86
2711;BME280;20721;47.402;8.550;2023-04-01T02:33:17;95146;;;9.15;55.79
2711;BME280;20721;47.402;8.550;2023-04-01T02:34:18;95148;;;9.16;55.64
2711;BME280;20721;47.402;8.550;2023-04-01T02:36:17;95144;;;9.15;55.44
2711;BME280;20721;47.402;8.550;2023-04-01T02:37:17;95149;;;9.20;55.50
2711;BME280;20721;47.402;8.550;2023-04-01T02:38:17;95145;;;9.22;55.33
2711;BME280;20721;47.402;8.550;2023-04-01T02:41:17;95144;;;9.20;55.25
2711;BME280;20721;47.402;8.550;2023-04-01T02:42:17;95138;;;9.19;55.28
2711;BME280;20721;47.402;8.550;2023-04-01T02:43:18;95142;;;9.20;55.13
2711;BME280;20721;47.402;8.550;2023-04-01T02:45:17;95135;;;9.09;54.92
2711;BME280;20721;47.402;8.550;2023-04-01T02:46:17;95143;;;9.00;55.20
2711;BME280;20721;47.402;8.550;2023-04-01T02:47:17;95140;;;8.93;55.32
2711;BME280;20721;47.402;8.550;2023-04-01T02:48:17;95135;;;8.89;55.68
2711;BME280;20721;47.402;8.550;2023-04-01T02:49:17;95139;;;8.88;55.72
2711;BME280;20721;47.402;8.550;2023-04-01T02:50:17;95130;;;8.92;55.84
2711;BME280;20721;47.402;8.550;2023-04-01T02:51:18;95131;;;8.90;56.22
2711;BME280;20721;47.402;8.550;2023-04-01T02:52:17;95122;;;8.92;56.42
2711;BME280;20721;47.402;8.550;2023-04-01T02:53:17;95123;;;8.98;56.42
2711;BME280;20721;47.402;8.550;2023-04-01T02:54:18;95123;;;9.02;56.46
2711;BME280;20721;47.402;8.550;2023-04-01T02:55:17;95122;;;9.03;56.28
2711;BME280;20721;47.402;8.550;2023-04-01T02:56:19;95115;;;9.04;56.05
2711;BME280;20721;47.402;8.550;2023-04-01T02:58:17;95123;;;9.02;55.84
2711;BME280;20721;47.402;8.550;2023-04-01T02:59:17;95118;;;9.04;55.89
2711;BME280;20721;47.402;8.550;2023-04-01T03:00:17;95118;;;9.05;56.11
2711;BME280;20721;47.402;8.550;2023-04-01T03:01:17;95123;;;9.10;55.98
2711;BME280;20721;47.402;8.550;2023-04-01T03:03:17;95121;;;9.09;55.78
2711;BME280;20721;47.402;8.550;2023-04-01T03:04:17;95124;;;9.11;55.68
2711;BME280;20721;47.402;8.550;2023-04-01T03:05:17;95118;;;9.15;55.55
2711;BME280;20721;47.402;8.550;2023-04-01T03:06:17;95120;;;9.19;55.37
2711;BME280;20721;47.402;8.550;2023-04-01T03:07:17;95115;;;9.21;55.19
2711;BME280;20721;47.402;8.550;2023-04-01T03:08:17;95117;;;9.27;55.21
2711;BME280;20721;47.402;8.550;2023-04-01T03:09:17;95119;;;9.25;55.17
2711;BME280;20721;47.402;8.550;2023-04-01T03:10:17;95116;;;9.24;54.99
2711;BME280;20721;47.402;8.550;2023-04-01T03:11:17;95113;;;9.25;55.04
2711;BME280;20721;47.402;8.550;2023-04-01T03:12:17;95118;;;9.23;54.86
2711;BME280;20721;47.402;8.550;2023-04-01T03:13:17;95117;;;9.22;54.90
2711;BME280;20721;47.402;8.550;2023-04-01T03:14:17;95111;;;9.18;55.11
2711;BME280;20721;47.402;8.550;2023-04-01T03:15:17;95119;;;9.14;55.00
2711;BME280;20721;47.402;8.550;2023-04-01T03:17:17;95116;;;9.15;55.01
2711;BME280;20721;47.402;8.550;2023-04-01T03:18:17;95120;;;9.21;54.91
2711;BME280;20721;47.402;8.550;2023-04-01T03:19:17;95117;;;9.11;54.91
2711;BME280;20721;47.402;8.550;2023-04-01T03:20:17;95117;;;9.14;55.00
2711;BME280;20721;47.402;8.550;2023-04-01T03:22:20;95119;;;9.15;55.02
2711;BME280;20721;47.402;8.550;2023-04-01T03:23:19;95122;;;9.18;54.90
2711;BME280;20721;47.402;8.550;2023-04-01T03:24:17;95126;;;9.09;54.94
2711;BME280;20721;47.402;8.550;2023-04-01T03:26:18;95119;;;9.13;55.26
2711;BME280;20721;47.402;8.550;2023-04-01T03:27:17;95123;;;9.12;55.23
2711;BME280;20721;47.402;8.550;2023-04-01T03:28:17;95126;;;9.10;55.10
2711;BME280;20721;47.402;8.550;2023-04-01T03:29:17;95118;;;9.08;55.12
2711;BME280;20721;47.402;8.550;2023-04-01T03:30:17;95108;;;9.07;55.26
2711;BME280;20721;47.402;8.550;2023-04-01T03:31:17;95121;;;9.05;55.15
2711;BME280;20721;47.402;8.550;2023-04-01T03:32:17;95119;;;9.08;55.12
2711;BME280;20721;47.402;8.550;2023-04-01T03:33:17;95122;;;9.12;55.16
2711;BME280;20721;47.402;8.550;2023-04-01T03:36:17;95118;;;9.08;54.97
2711;BME280;20721;47.402;8.550;2023-04-01T03:37:17;95117;;;9.00;55.19
2711;BME280;20721;47.402;8.550;2023-04-01T03:39:19;95116;;;8.97;55.30
2711;BME280;20721;47.402;8.550;2023-04-01T03:40:17;95106;;;8.99;55.26
2711;BME280;20721;47.402;8.550;2023-04-01T03:41:17;95104;;;9.01;55.17
2711;BME280;20721;47.402;8.550;2023-04-01T03:42:17;95110;;;8.97;55.24
2711;BME280;20721;47.402;8.550;2023-04-01T03:43:18;95113;;;9.02;55.12
2711;BME280;20721;47.402;8.550;2023-04-01T03:44:17;95103;;;9.06;55.02
2711;BME280;20721;47.402;8.550;2023-04-01T03:45:17;95115;;;9.05;55.00
2711;BME280;20721;47.402;8.550;2023-04-01T03:46:18;95113;;;9.04;54.92
2711;BME280;20721;47.402;8.550;2023-04-01T03:47:17;95113;;;9.06;55.03
2711;BME280;20721;47.402;8.550;2023-04-01T03:48:17;95117;;;9.11;54.87
2711;BME280;20721;47.402;8.550;2023-04-01T03:49:17;95122;;;9.12;54.74
2711;BME280;20721;47.402;8.550;2023-04-01T03:50:17;95122;;;9.09;54.79
2711;BME280;20721;47.402;8.550;2023-04-01T03:51:17;95123;;;9.06;54.95
2711;BME280;20721;47.402;8.550;2023-04-01T03:53:17;95114;;;9.03;54.84
2711;BME280;20721;47.402;8.550;2023-04-01T03:54:18;95118;;;9.08;54.88
2711;BME280;20721;47.402;8.550;2023-04-01T03:55:18;95119;;;9.06;54.75
2711;BME280;20721;47.402;8.550;2023-04-01T03:56:17;95121;;;9.08;54.66
2711;BME280;20721;47.402;8.550;2023-04-01T03:57:17;95119;;;9.06;54.65
2711;BME280;20721;47.402;8.550;2023-04-01T03:58:17;95125;;;8.98;54.84
2711;BME280;20721;47.402;8.550;2023-04-01T03:59:17;95124;;;8.96;54.61
2711;BME280;20721;47.402;8.550;2023-04-01T04:00:17;95128;;;8.95;54.48
2711;BME280;20721;47.402;8.550;2023-04-01T04:01:18;95129;;;8.94;54.60
2711;BME280;20721;47.402;8.550;2023-04-01T04:02:17;95123;;;8.97;54.74
2711;BME280;20721;47.402;8.550;2023-04-01T04:03:18;95126;;;8.99;54.57
2711;BME280;20721;47.402;8.550;2023-04-01T04:04:17;95120;;;9.00;54.60
2711;BME280;20721;47.402;8.550;2023-04-01T04:05:17;95129;;;9.06;54.46
2711;BME280;20721;47.402;8.550;2023-04-01T04:06:18;95113;;;9.08;54.35
2711;BME280;20721;47.402;8.550;2023-04-01T04:08:17;95122;;;9.13;54.96
2711;BME280;20721;47.402;8.550;2023-04-01T04:09:17;95122;;;9.20;55.09
2711;BME280;20721;47.402;8.550;2023-04-01T04:10:18;95118;;;9.26;55.05
2711;BME280;20721;47.402;8.550;2023-04-01T04:11:18;95114;;;9.30;54.87
2711;BME280;20721;47.402;8.550;2023-04-01T04:12:17;95121;;;9.32;55.03
2711;BME280;20721;47.402;8.550;2023-04-01T04:14:18;95111;;;9.39;54.88
2711;BME280;20721;47.402;8.550;2023-04-01T04:15:17;95122;;;9.31;54.40
2711;BME280;20721;47.402;8.550;2023-04-01T04:16:18;95106;;;9.32;54.44
2711;BME280;20721;47.402;8.550;2023-04-01T04:17:17;95112;;;9.33;54.60
2711;BME280;20721;47.402;8.550;2023-04-01T04:18:17;95116;;;9.36;54.51
2711;BME280;20721;47.402;8.550;2023-04-01T04:20:17;95113;;;9.37;54.31
2711;BME280;20721;47.402;8.550;2023-04-01T04:21:18;95114;;;9.38;54.53
2711;BME280;20721;47.402;8.550;2023-04-01T04:22:17;95113;;;9.37;54.56
2711;BME280;20721;47.402;8.550;2023-04-01T04:23:17;95115;;;9.39;54.54
2711;BME280;20721;47.402;8.550;2023-04-01T04:24:17;95117;;;9.46;54.00
2711;BME280;20721;47.402;8.550;2023-04-01T04:25:17;95121;;;9.43;53.67
2711;BME280;20721;47.402;8.550;2023-04-01T04:26:17;95110;;;9.42;53.79
2711;BME280;20721;47.402;8.550;2023-04-01T04:27:17;95114;;;9.41;54.00
2711;BME280;20721;47.402;8.550;2023-04-01T04:28:17;95115;;;9.38;53.99
2711;BME280;20721;47.402;8.550;2023-04-01T04:29:17;95114;;;9.39;53.84
2711;BME280;20721;47.402;8.550;2023-04-01T04:30:17;95126;;;9.35;53.77
2711;BME280;20721;47.402;8.550;2023-04-01T04:31:19;95115;;;9.37;53.78
2711;BME280;20721;47.402;8.550;2023-04-01T04:32:17;95121;;;9.36;53.57
2711;BME280;20721;47.402;8.550;2023-04-01T04:33:17;95119;;;9.33;53.58
2711;BME280;20721;47.402;8.550;2023-04-01T04:34:18;95120;;;9.32;53.65
2711;BME280;20721;47.402;8.550;2023-04-01T04:35:17;95139;;;9.36;53.56
2711;BME280;20721;47.402;8.550;2023-04-01T04:36:18;95128;;;9.30;53.50
2711;BME280;20721;47.402;8.550;2023-04-01T04:37:17;95117;;;9.22;54.89
2711;BME280;20721;47.402;8.550;2023-04-01T04:38:17;95123;;;9.29;55.57
2711;BME280;20721;47.402;8.550;2023-04-01T04:39:17;95131;;;9.22;56.19
2711;BME280;20721;47.402;8.550;2023-04-01T04:42:18;95137;;;9.23;56.77
2711;BME280;20721;47.402;8.550;2023-04-01T04:43:18;95135;;;9.16;56.65
2711;BME280;20721;47.402;8.550;2023-04-01T04:44:17;95135;;;9.19;56.35
2711;BME280;20721;47.402;8.550;2023-04-01T04:45:17;95135;;;9.21;56.54
2711;BME280;20721;47.402;8.550;2023-04-01T04:46:18;95134;;;9.17;56.65
2711;BME280;20721;47.402;8.550;2023-04-01T04:47:18;95134;;;9.18;56.93
2711;BME280;20721;47.402;8.550;2023-04-01T04:48:20;95134;;;9.19;56.93
2711;BME280;20721;47.402;8.550;2023-04-01T04:49:17;95129;;;9.20;56.96
2711;BME280;20721;47.402;8.550;2023-04-01T04:50:17;95131;;;9.24;56.92
2711;BME280;20721;47.402;8.550;2023-04-01T04:52:17;95146;;;9.19;56.92
2711;BME280;20721;47.402;8.550;2023-04-01T04:54:17;95153;;;9.25;56.82
2711;BME280;20721;47.402;8.550;2023-04-01T04:55:17;95152;;;9.22;56.93
2711;BME280;20721;47.402;8.550;2023-04-01T04:56:18;95152;;;9.23;56.99
2711;BME280;20721;47.402;8.550;2023-04-01T04:57:18;95158;;;9.24;57.13
2711;BME280;20721;47.402;8.550;2023-04-01T04:58:18;95154;;;9.21;57.02
2711;BME280;20721;47.402;8.550;2023-04-01T05:00:18;95160;;;9.19;57.10
2711;BME280;20721;47.402;8.550;2023-04-01T05:01:18;95157;;;9.17;57.50
2711;BME280;20721;47.402;8.550;2023-04-01T05:02:18;95155;;;9.15;57.70
2711;BME280;20721;47.402;8.550;2023-04-01T05:04:17;95153;;;9.16;57.77
2711;BME280;20721;47.402;8.550;2023-04-01T05:05:17;95148;;;9.13;57.99
2711;BME280;20721;47.402;8.550;2023-04-01T05:06:18;95157;;;9.15;58.11
2711;BME280;20721;47.402;8.550;2023-04-01T05:07:17;95157;;;9.19;58.17
2711;BME280;20721;47.402;8.550;2023-04-01T05:08:18;95155;;;9.20;57.79
2711;BME280;20721;47.402;8.550;2023-04-01T05:09:18;95150;;;9.11;57.74
2711;BME280;20721;47.402;8.550;2023-04-01T05:10:17;95156;;;9.08;58.21
2711;BME280;20721;47.402;8.550;2023-04-01T05:11:18;95155;;;9.12;58.10
2711;BME280;20721;47.402;8.550;2023-04-01T05:13:17;95167;;;9.15;57.75
2711;BME280;20721;47.402;8.550;2023-04-01T05:14:17;95167;;;9.17;57.56
2711;BME280;20721;47.402;8.550;2023-04-01T05:15:18;95161;;;9.20;57.79
2711;BME280;20721;47.402;8.550;2023-04-01T05:16:18;95158;;;9.24;57.52
2711;BME280;20721;47.402;8.550;2023-04-01T05:17:17;95168;;;9.21;57.44
2711;BME280;20721;47.402;8.550;2023-04-01T05:18:17;95165;;;9.03;57.67
2711;BME280;20721;47.402;8.550;2023-04-01T05:19:18;95163;;;8.98;57.85
2711;BME280;20721;47.402;8.550;2023-04-01T05:20:18;95162;;;8.96;58.16
2711;BME280;20721;47.402;8.550;2023-04-01T05:21:18;95160;;;8.88;58.38
2711;BME280;20721;47.402;8.550;2023-04-01T05:22:17;95162;;;8.75;58.11
2711;BME280;20721;47.402;8.550;2023-04-01T05:23:18;95172;;;8.74;58.45
2711;BME280;20721;47.402;8.550;2023-04-01T05:24:18;95162;;;8.67;58.17
2711;BME280;20721;47.402;8.550;2023-04-01T05:25:18;95166;;;8.66;58.48
2711;BME280;20721;47.402;8.550;2023-04-01T05:27:18;95163;;;8.60;58.78
2711;BME280;20721;47.402;8.550;2023-04-01T05:28:18;95162;;;8.55;59.06
2711;BME280;20721;47.402;8.550;2023-04-01T05:29:17;95164;;;8.53;59.16
2711;BME280;20721;47.402;8.550;2023-04-01T05:30:18;95164;;;8.56;59.27
2711;BME280;20721;47.402;8.550;2023-04-01T05:31:18;95167;;;8.51;59.09
2711;BME280;20721;47.402;8.550;2023-04-01T05:32:17;95176;;;8.59;59.16
2711;BME280;20721;47.402;8.550;2023-04-01T05:33:17;95169;;;8.57;59.26
2711;BME280;20721;47.402;8.550;2023-04-01T05:34:17;95167;;;8.54;59.10
2711;BME280;20721;47.402;8.550;2023-04-01T05:35:18;95177;;;8.56;59.29
2711;BME280;20721;47.402;8.550;2023-04-01T05:36:18;95176;;;8.52;59.48
2711;BME280;20721;47.402;8.550;2023-04-01T05:39:18;95187;;;8.55;59.81
2711;BME280;20721;47.402;8.550;2023-04-01T05:40:18;95189;;;8.63;59.69
2711;BME280;20721;47.402;8.550;2023-04-01T05:41:18;95188;;;8.70;59.82
2711;BME280;20721;47.402;8.550;2023-04-01T05:42:18;95189;;;8.77;60.02
2711;BME280;20721;47.402;8.550;2023-04-01T05:43:17;95187;;;8.66;59.76
2711;BME280;20721;47.402;8.550;2023-04-01T05:44:18;95182;;;8.65;59.90
2711;BME280;20721;47.402;8.550;2023-04-01T05:45:19;95186;;;8.51;60.00
2711;BME280;20721;47.402;8.550;2023-04-01T05:46:18;95185;;;8.47;60.22
2711;BME280;20721;47.402;8.550;2023-04-01T05:47:18;95182;;;8.50;60.02
2711;BME280;20721;47.402;8.550;2023-04-01T05:48:18;95173;;;8.47;60.26
2711;BME280;20721;47.402;8.550;2023-04-01T05:49:18;95184;;;8.52;60.28
2711;BME280;20721;47.402;8.550;2023-04-01T05:50:18;95193;;;8.49;60.40
2711;BME280;20721;47.402;8.550;2023-04-01T05:51:18;95176;;;8.52;60.31
2711;BME280;20721;47.402;8.550;2023-04-01T05:52:18;95188;;;8.60;60.12
2711;BME280;20721;47.402;8.550;2023-04-01T05:53:18;95183;;;8.65;59.86
2711;BME280;20721;47.402;8.550;2023-04-01T05:54:18;95180;;;8.73;59.85
2711;BME280;20721;47.402;8.550;2023-04-01T05:55:18;95177;;;8.83;59.60
2711;BME280;20721;47.402;8.550;2023-04-01T05:56:18;95180;;;8.92;59.43
2711;BME280;20721;47.402;8.550;2023-04-01T05:57:18;95177;;;9.01;59.51
2711;BME280;20721;47.402;8.550;2023-04-01T05:58:18;95169;;;9.05;58.99
2711;BME280;20721;47.402;8.550;2023-04-01T05:59:18;95171;;;9.08;58.80
2711;BME280;20721;47.402;8.550;2023-04-01T06:00:19;95166;;;9.06;58.86
2711;BME280;20721;47.402;8.550;2023-04-01T06:01:18;95167;;;9.15;59.12
2711;BME280;20721;47.402;8.550;2023-04-01T06:02:18;95173;;;9.22;58.86
2711;BME280;20721;47.402;8.550;2023-04-01T06:03:18;95173;;;9.18;58.86
2711;BME280;20721;47.402;8.550;2023-04-01T06:04:18;95174;;;9.27;58.70
2711;BME280;20721;47.402;8.550;2023-04-01T06:05:19;95177;;;9.34;58.62
2711;BME280;20721;47.402;8.550;2023-04-01T06:06:26;95175;;;9.31;57.96
2711;BME280;20721;47.402;8.550;2023-04-01T06:07:18;95176;;;9.22;57.99
2711;BME280;20721;47.402;8.550;2023-04-01T06:08:20;95167;;;9.11;58.50
2711;BME280;20721;47.402;8.550;2023-04-01T06:09:18;95175;;;9.07;58.55
2711;BME280;20721;47.402;8.550;2023-04-01T06:10:19;95175;;;9.10;58.75
2711;BME280;20721;47.402;8.550;2023-04-01T06:12:24;95172;;;9.18;58.84
2711;BME280;20721;47.402;8.550;2023-04-01T06:21:25;95175;;;9.78;57.60
2711;BME280;20721;47.402;8.550;2023-04-01T06:24:26;95180;;;9.93;56.95
2711;BME280;20721;47.402;8.550;2023-04-01T06:26:22;95176;;;9.87;56.42
2711;BME280;20721;47.402;8.550;2023-04-01T06:29:21;95177;;;9.67;56.98
2711;BME280;20721;47.402;8.550;2023-04-01T06:40:22;95161;;;11.11;54.41
2711;BME280;20721;47.402;8.550;2023-04-01T06:42:21;95168;;;10.98;53.18
2711;BME280;20721;47.402;8.550;2023-04-01T06:44:23;95169;;;11.22;52.52
2711;BME280;20721;47.402;8.550;2023-04-01T06:46:20;95170;;;11.18;52.31
2711;BME280;20721;47.402;8.550;2023-04-01T06:48:26;95155;;;11.09;52.48
2711;BME280;20721;47.402;8.550;2023-04-01T06:51:36;95162;;;10.75;52.72
2711;BME280;20721;47.402;8.550;2023-04-01T06:53:23;95154;;;10.44;53.29
2711;BME280;20721;47.402;8.550;2023-04-01T06:56:18;95166;;;10.09;54.13
2711;BME280;20721;47.402;8.550;2023-04-01T06:58:19;95152;;;10.05;54.45
2711;BME280;20721;47.402;8.550;2023-04-01T07:00:21;95159;;;10.18;54.19
2711;BME280;20721;47.402;8.550;2023-04-01T07:01:27;95162;;;10.12;53.82
2711;BME280;20721;47.402;8.550;2023-04-01T07:02:22;95156;;;10.16;53.97
2711;BME280;20721;47.402;8.550;2023-04-01T07:04:20;95163;;;10.20;54.13
2711;BME280;20721;47.402;8.550;2023-04-01T07:06:23;95161;;;10.15;53.99
2711;BME280;20721;47.402;8.550;2023-04-01T07:07:24;95160;;;10.00;54.04
2711;BME280;20721;47.402;8.550;2023-04-01T07:08:20;95161;;;9.97;54.70
2711;BME280;20721;47.402;8.550;2023-04-01T07:10:20;95160;;;10.01;54.70
2711;BME280;20721;47.402;8.550;2023-04-01T07:13:20;95164;;;10.03;54.74
2711;BME280;20721;47.402;8.550;2023-04-01T07:15:36;95161;;;9.96;54.59
2711;BME280;20721;47.402;8.550;2023-04-01T07:16:19;95159;;;9.97;54.71
2711;BME280;20721;47.402;8.550;2023-04-01T07:17:20;95160;;;9.92;54.58
2711;BME280;20721;47.402;8.550;2023-04-01T07:18:20;95160;;;9.96;54.99